sensor_id;sensor_type;location;lat;lon;timestamp;P1;durP1;ratioP1;P2;durP2;ratioP2
56255;SDS011;57229;51.432;-2.598;2023-03-24T00:02:02;18.60;;;5.35;;
56255;SDS011;57229;51.432;-2.598;2023-03-24T00:04:28;19.63;;;6.25;;
56255;SDS011;57229;51.432;-2.598;2023-03-24T00:06:54;19.38;;;5.53;;
56255;SDS011;57229;51.432;-2.598;2023-03-24T00:09:20;18.00;;;5.80;;
56255;SDS011;57229;51.432;-2.598;2023-03-24T00:11:46;16.70;;;5.45;;
56255;SDS011;57229;51.432;-2.598;2023-03-24T00:14:11;23.45;;;5.18;;
56255;SDS011;57229;51.432;-2.598;2023-03-24T00:16:40;28.88;;;6.15;;
56255;SDS011;57229;51.432;-2.598;2023-03-24T00:19:09;25.27;;;6.03;;
56255;SDS011;57229;51.432;-2.598;2023-03-24T00:21:37;21.23;;;5.20;;
56255;SDS011;57229;51.432;-2.598;2023-03-24T00:24:04;30.80;;;5.95;;
56255;SDS011;57229;51.432;-2.598;2023-03-24T00:26:36;25.10;;;5.88;;
56255;SDS011;57229;51.432;-2.598;2023-03-24T00:29:05;24.98;;;5.50;;
56255;SDS011;57229;51.432;-2.598;2023-03-24T00:31:32;23.17;;;5.25;;
56255;SDS011;57229;51.432;-2.598;2023-03-24T00:33:58;23.10;;;5.70;;
56255;SDS011;57229;51.432;-2.598;2023-03-24T00:36:26;19.65;;;5.63;;
56255;SDS011;57229;51.432;-2.598;2023-03-24T00:38:53;28.27;;;5.95;;
56255;SDS011;57229;51.432;-2.598;2023-03-24T00:41:20;28.10;;;6.22;;
56255;SDS011;57229;51.432;-2.598;2023-03-24T00:43:52;21.40;;;6.30;;
56255;SDS011;57229;51.432;-2.598;2023-03-24T00:46:22;22.65;;;5.72;;
56255;SDS011;57229;51.432;-2.598;2023-03-24T00:48:53;19.02;;;5.45;;
56255;SDS011;57229;51.432;-2.598;2023-03-24T00:51:26;25.75;;;5.97;;
56255;SDS011;57229;51.432;-2.598;2023-03-24T00:53:56;27.73;;;6.00;;
56255;SDS011;57229;51.432;-2.598;2023-03-24T00:56:26;25.63;;;5.88;;
56255;SDS011;57229;51.432;-2.598;2023-03-24T00:58:53;29.40;;;6.32;;
56255;SDS011;57229;51.432;-2.598;2023-03-24T01:01:22;27.45;;;6.53;;
56255;SDS011;57229;51.432;-2.598;2023-03-24T01:03:49;26.35;;;6.00;;
56255;SDS011;57229;51.432;-2.598;2023-03-24T01:06:16;23.58;;;6.50;;
56255;SDS011;57229;51.432;-2.598;2023-03-24T01:08:43;26.33;;;6.07;;
56255;SDS011;57229;51.432;-2.598;2023-03-24T01:11:10;29.63;;;5.78;;
56255;SDS011;57229;51.432;-2.598;2023-03-24T01:13:37;27.77;;;5.43;;
56255;SDS011;57229;51.432;-2.598;2023-03-24T01:16:04;22.80;;;5.35;;
56255;SDS011;57229;51.432;-2.598;2023-03-24T01:18:30;29.38;;;5.47;;
56255;SDS011;57229;51.432;-2.598;2023-03-24T01:20:59;15.52;;;5.45;;
56255;SDS011;57229;51.432;-2.598;2023-03-24T01:23:25;18.95;;;5.18;;
56255;SDS011;57229;51.432;-2.598;2023-03-24T01:25:51;22.10;;;5.85;;
56255;SDS011;57229;51.432;-2.598;2023-03-24T01:28:19;32.38;;;6.70;;
56255;SDS011;57229;51.432;-2.598;2023-03-24T01:30:52;29.85;;;6.07;;
56255;SDS011;57229;51.432;-2.598;2023-03-24T01:33:20;24.27;;;5.32;;
56255;SDS011;57229;51.432;-2.598;2023-03-24T01:35:46;17.27;;;5.65;;
56255;SDS011;57229;51.432;-2.598;2023-03-24T01:38:12;16.33;;;5.43;;
56255;SDS011;57229;51.432;-2.598;2023-03-24T01:40:40;22.50;;;5.07;;
56255;SDS011;57229;51.432;-2.598;2023-03-24T01:46:20;23.45;;;5.65;;
56255;SDS011;57229;51.432;-2.598;2023-03-24T01:51:28;30.48;;;6.25;;
56255;SDS011;57229;51.432;-2.598;2023-03-24T01:54:11;27.02;;;5.60;;
56255;SDS011;57229;51.432;-2.598;2023-03-24T01:56:43;20.92;;;5.25;;
56255;SDS011;57229;51.432;-2.598;2023-03-24T01:59:15;17.10;;;5.50;;
56255;SDS011;57229;51.432;-2.598;2023-03-24T02:01:45;32.92;;;5.97;;
56255;SDS011;57229;51.432;-2.598;2023-03-24T02:04:11;24.00;;;6.03;;
56255;SDS011;57229;51.432;-2.598;2023-03-24T02:06:38;23.30;;;5.47;;
56255;SDS011;57229;51.432;-2.598;2023-03-24T02:09:08;25.33;;;5.80;;
56255;SDS011;57229;51.432;-2.598;2023-03-24T02:11:35;33.00;;;6.20;;
56255;SDS011;57229;51.432;-2.598;2023-03-24T02:14:02;17.98;;;4.93;;
56255;SDS011;57229;51.432;-2.598;2023-03-24T02:22:04;22.05;;;5.50;;
56255;SDS011;57229;51.432;-2.598;2023-03-24T02:24:49;25.45;;;5.43;;
56255;SDS011;57229;51.432;-2.598;2023-03-24T02:32:56;16.35;;;5.45;;
56255;SDS011;57229;51.432;-2.598;2023-03-24T02:47:11;27.13;;;5.70;;
56255;SDS011;57229;51.432;-2.598;2023-03-24T02:49:55;22.42;;;5.78;;
56255;SDS011;57229;51.432;-2.598;2023-03-24T02:52:44;19.05;;;5.00;;
56255;SDS011;57229;51.432;-2.598;2023-03-24T02:55:18;20.75;;;5.22;;
56255;SDS011;57229;51.432;-2.598;2023-03-24T02:58:24;16.88;;;5.40;;
56255;SDS011;57229;51.432;-2.598;2023-03-24T03:00:56;14.65;;;4.40;;
56255;SDS011;57229;51.432;-2.598;2023-03-24T03:03:38;23.37;;;5.47;;
56255;SDS011;57229;51.432;-2.598;2023-03-24T03:06:19;22.33;;;5.60;;
56255;SDS011;57229;51.432;-2.598;2023-03-24T03:08:54;25.38;;;5.68;;
56255;SDS011;57229;51.432;-2.598;2023-03-24T03:11:21;21.23;;;5.45;;
56255;SDS011;57229;51.432;-2.598;2023-03-24T03:16:27;22.15;;;5.00;;
56255;SDS011;57229;51.432;-2.598;2023-03-24T03:19:02;22.65;;;4.88;;
56255;SDS011;57229;51.432;-2.598;2023-03-24T03:21:36;16.17;;;4.28;;
56255;SDS011;57229;51.432;-2.598;2023-03-24T03:24:09;23.58;;;5.18;;
56255;SDS011;57229;51.432;-2.598;2023-03-24T03:26:44;13.32;;;4.50;;
56255;SDS011;57229;51.432;-2.598;2023-03-24T03:29:19;22.40;;;5.68;;
56255;SDS011;57229;51.432;-2.598;2023-03-24T03:31:48;24.23;;;5.95;;
56255;SDS011;57229;51.432;-2.598;2023-03-24T03:37:19;24.73;;;5.22;;
56255;SDS011;57229;51.432;-2.598;2023-03-24T03:39:50;21.23;;;5.22;;
56255;SDS011;57229;51.432;-2.598;2023-03-24T03:42:20;23.92;;;5.57;;
56255;SDS011;57229;51.432;-2.598;2023-03-24T03:44:46;14.10;;;4.65;;
56255;SDS011;57229;51.432;-2.598;2023-03-24T03:47:12;21.27;;;5.78;;
56255;SDS011;57229;51.432;-2.598;2023-03-24T03:49:39;18.85;;;4.63;;
56255;SDS011;57229;51.432;-2.598;2023-03-24T03:52:05;22.48;;;4.95;;
56255;SDS011;57229;51.432;-2.598;2023-03-24T03:54:31;17.95;;;4.88;;
56255;SDS011;57229;51.432;-2.598;2023-03-24T03:56:58;30.05;;;5.57;;
56255;SDS011;57229;51.432;-2.598;2023-03-24T04:01:49;18.08;;;4.57;;
56255;SDS011;57229;51.432;-2.598;2023-03-24T04:07:11;17.52;;;4.88;;
56255;SDS011;57229;51.432;-2.598;2023-03-24T04:17:40;20.55;;;5.82;;
56255;SDS011;57229;51.432;-2.598;2023-03-24T04:20:10;15.82;;;5.18;;
56255;SDS011;57229;51.432;-2.598;2023-03-24T04:22:47;21.88;;;5.25;;
56255;SDS011;57229;51.432;-2.598;2023-03-24T04:28:42;19.65;;;5.15;;
56255;SDS011;57229;51.432;-2.598;2023-03-24T04:32:06;19.25;;;5.00;;
56255;SDS011;57229;51.432;-2.598;2023-03-24T04:34:27;26.00;;;5.25;;
56255;SDS011;57229;51.432;-2.598;2023-03-24T04:37:03;21.25;;;5.18;;
56255;SDS011;57229;51.432;-2.598;2023-03-24T04:39:36;16.05;;;4.82;;
56255;SDS011;57229;51.432;-2.598;2023-03-24T04:42:09;16.05;;;5.28;;
56255;SDS011;57229;51.432;-2.598;2023-03-24T04:44:42;28.92;;;5.22;;
56255;SDS011;57229;51.432;-2.598;2023-03-24T04:47:09;18.55;;;5.47;;
56255;SDS011;57229;51.432;-2.598;2023-03-24T04:49:37;28.30;;;5.25;;
56255;SDS011;57229;51.432;-2.598;2023-03-24T04:52:19;18.80;;;5.18;;
56255;SDS011;57229;51.432;-2.598;2023-03-24T04:54:45;17.60;;;5.13;;
56255;SDS011;57229;51.432;-2.598;2023-03-24T04:57:10;16.60;;;5.18;;
56255;SDS011;57229;51.432;-2.598;2023-03-24T04:59:36;21.65;;;6.22;;
56255;SDS011;57229;51.432;-2.598;2023-03-24T05:02:02;18.92;;;4.80;;
56255;SDS011;57229;51.432;-2.598;2023-03-24T05:04:28;25.13;;;5.50;;
56255;SDS011;57229;51.432;-2.598;2023-03-24T05:06:54;17.77;;;4.97;;
56255;SDS011;57229;51.432;-2.598;2023-03-24T05:09:21;19.95;;;4.63;;
56255;SDS011;57229;51.432;-2.598;2023-03-24T05:11:48;29.83;;;5.75;;
56255;SDS011;57229;51.432;-2.598;2023-03-24T05:14:15;22.73;;;5.28;;
56255;SDS011;57229;51.432;-2.598;2023-03-24T05:16:41;14.88;;;4.90;;
56255;SDS011;57229;51.432;-2.598;2023-03-24T05:19:07;24.20;;;5.35;;
56255;SDS011;57229;51.432;-2.598;2023-03-24T05:21:34;21.25;;;5.38;;
56255;SDS011;57229;51.432;-2.598;2023-03-24T05:24:00;21.17;;;5.18;;
56255;SDS011;57229;51.432;-2.598;2023-03-24T05:26:27;23.48;;;5.18;;
56255;SDS011;57229;51.432;-2.598;2023-03-24T05:28:54;20.45;;;4.90;;
56255;SDS011;57229;51.432;-2.598;2023-03-24T05:31:21;25.40;;;5.47;;
56255;SDS011;57229;51.432;-2.598;2023-03-24T05:33:47;25.83;;;5.38;;
56255;SDS011;57229;51.432;-2.598;2023-03-24T05:36:13;23.65;;;5.35;;
56255;SDS011;57229;51.432;-2.598;2023-03-24T05:38:39;19.63;;;5.63;;
56255;SDS011;57229;51.432;-2.598;2023-03-24T05:41:05;26.20;;;5.50;;
56255;SDS011;57229;51.432;-2.598;2023-03-24T05:43:31;22.13;;;4.90;;
56255;SDS011;57229;51.432;-2.598;2023-03-24T05:45:57;30.17;;;5.22;;
56255;SDS011;57229;51.432;-2.598;2023-03-24T05:48:26;21.30;;;5.13;;
56255;SDS011;57229;51.432;-2.598;2023-03-24T05:50:52;29.63;;;5.28;;
56255;SDS011;57229;51.432;-2.598;2023-03-24T05:53:18;24.48;;;5.82;;
56255;SDS011;57229;51.432;-2.598;2023-03-24T05:55:47;22.52;;;5.45;;
56255;SDS011;57229;51.432;-2.598;2023-03-24T05:58:12;23.17;;;5.68;;
56255;SDS011;57229;51.432;-2.598;2023-03-24T06:00:39;27.70;;;5.50;;
56255;SDS011;57229;51.432;-2.598;2023-03-24T06:03:05;16.05;;;5.22;;
56255;SDS011;57229;51.432;-2.598;2023-03-24T06:05:31;27.15;;;5.82;;
56255;SDS011;57229;51.432;-2.598;2023-03-24T06:07:57;27.98;;;5.80;;
56255;SDS011;57229;51.432;-2.598;2023-03-24T06:10:26;22.35;;;5.25;;
56255;SDS011;57229;51.432;-2.598;2023-03-24T06:12:53;22.55;;;4.88;;
56255;SDS011;57229;51.432;-2.598;2023-03-24T06:15:20;24.92;;;5.40;;
56255;SDS011;57229;51.432;-2.598;2023-03-24T06:17:48;21.02;;;5.32;;
56255;SDS011;57229;51.432;-2.598;2023-03-24T06:20:14;28.83;;;6.00;;
56255;SDS011;57229;51.432;-2.598;2023-03-24T06:22:43;26.58;;;5.72;;
56255;SDS011;57229;51.432;-2.598;2023-03-24T06:25:14;16.60;;;5.72;;
56255;SDS011;57229;51.432;-2.598;2023-03-24T06:27:42;22.30;;;5.55;;
56255;SDS011;57229;51.432;-2.598;2023-03-24T06:30:13;24.42;;;5.30;;
56255;SDS011;57229;51.432;-2.598;2023-03-24T06:32:40;22.17;;;4.88;;
56255;SDS011;57229;51.432;-2.598;2023-03-24T06:35:10;34.10;;;5.40;;
56255;SDS011;57229;51.432;-2.598;2023-03-24T06:37:36;26.45;;;5.60;;
56255;SDS011;57229;51.432;-2.598;2023-03-24T06:40:02;26.65;;;5.13;;
56255;SDS011;57229;51.432;-2.598;2023-03-24T06:42:33;14.93;;;5.35;;
56255;SDS011;57229;51.432;-2.598;2023-03-24T06:44:58;20.10;;;4.90;;
56255;SDS011;57229;51.432;-2.598;2023-03-24T06:47:24;23.98;;;5.43;;
56255;SDS011;57229;51.432;-2.598;2023-03-24T06:49:50;17.60;;;4.80;;
56255;SDS011;57229;51.432;-2.598;2023-03-24T06:52:15;17.65;;;5.28;;
56255;SDS011;57229;51.432;-2.598;2023-03-24T06:54:41;20.65;;;5.18;;
56255;SDS011;57229;51.432;-2.598;2023-03-24T06:57:07;25.67;;;5.72;;
56255;SDS011;57229;51.432;-2.598;2023-03-24T06:59:32;25.33;;;5.30;;
56255;SDS011;57229;51.432;-2.598;2023-03-24T07:01:58;21.13;;;5.95;;
56255;SDS011;57229;51.432;-2.598;2023-03-24T07:04:25;15.40;;;5.00;;
56255;SDS011;57229;51.432;-2.598;2023-03-24T07:07:03;20.85;;;5.15;;
56255;SDS011;57229;51.432;-2.598;2023-03-24T07:09:54;22.85;;;5.72;;
56255;SDS011;57229;51.432;-2.598;2023-03-24T07:12:20;25.75;;;5.65;;
56255;SDS011;57229;51.432;-2.598;2023-03-24T07:14:46;15.50;;;5.32;;
56255;SDS011;57229;51.432;-2.598;2023-03-24T07:17:20;17.85;;;5.65;;
56255;SDS011;57229;51.432;-2.598;2023-03-24T07:19:49;18.88;;;5.88;;
56255;SDS011;57229;51.432;-2.598;2023-03-24T07:22:14;16.60;;;5.40;;
56255;SDS011;57229;51.432;-2.598;2023-03-24T07:24:40;17.35;;;5.47;;
56255;SDS011;57229;51.432;-2.598;2023-03-24T07:27:06;23.38;;;5.45;;
56255;SDS011;57229;51.432;-2.598;2023-03-24T07:29:32;22.20;;;6.15;;
56255;SDS011;57229;51.432;-2.598;2023-03-24T07:32:00;19.25;;;5.75;;
56255;SDS011;57229;51.432;-2.598;2023-03-24T07:34:26;14.68;;;5.60;;
56255;SDS011;57229;51.432;-2.598;2023-03-24T07:36:52;16.27;;;5.82;;
56255;SDS011;57229;51.432;-2.598;2023-03-24T07:39:18;21.98;;;5.63;;
56255;SDS011;57229;51.432;-2.598;2023-03-24T07:41:45;22.23;;;5.30;;
56255;SDS011;57229;51.432;-2.598;2023-03-24T07:44:11;17.35;;;5.63;;
56255;SDS011;57229;51.432;-2.598;2023-03-24T07:46:37;16.45;;;4.88;;
56255;SDS011;57229;51.432;-2.598;2023-03-24T07:49:03;17.15;;;5.13;;
56255;SDS011;57229;51.432;-2.598;2023-03-24T07:51:32;16.92;;;5.32;;
56255;SDS011;57229;51.432;-2.598;2023-03-24T07:54:07;26.60;;;5.95;;
56255;SDS011;57229;51.432;-2.598;2023-03-24T07:56:36;13.52;;;5.40;;
56255;SDS011;57229;51.432;-2.598;2023-03-24T07:59:18;22.10;;;5.70;;
56255;SDS011;57229;51.432;-2.598;2023-03-24T08:01:44;17.60;;;6.57;;
56255;SDS011;57229;51.432;-2.598;2023-03-24T08:04:12;24.70;;;5.85;;
56255;SDS011;57229;51.432;-2.598;2023-03-24T08:06:38;17.90;;;5.45;;
56255;SDS011;57229;51.432;-2.598;2023-03-24T08:09:07;23.17;;;5.40;;
56255;SDS011;57229;51.432;-2.598;2023-03-24T08:11:33;15.30;;;5.50;;
56255;SDS011;57229;51.432;-2.598;2023-03-24T08:14:03;26.80;;;6.03;;
56255;SDS011;57229;51.432;-2.598;2023-03-24T08:16:29;16.25;;;5.63;;
56255;SDS011;57229;51.432;-2.598;2023-03-24T08:18:55;15.65;;;5.80;;
56255;SDS011;57229;51.432;-2.598;2023-03-24T08:21:23;12.23;;;4.93;;
56255;SDS011;57229;51.432;-2.598;2023-03-24T08:23:50;21.45;;;5.40;;
56255;SDS011;57229;51.432;-2.598;2023-03-24T08:26:16;22.52;;;6.10;;
56255;SDS011;57229;51.432;-2.598;2023-03-24T08:28:42;24.45;;;5.10;;
56255;SDS011;57229;51.432;-2.598;2023-03-24T08:31:18;16.50;;;5.63;;
56255;SDS011;57229;51.432;-2.598;2023-03-24T08:33:47;17.52;;;5.00;;
56255;SDS011;57229;51.432;-2.598;2023-03-24T08:36:13;15.02;;;5.00;;
56255;SDS011;57229;51.432;-2.598;2023-03-24T08:38:38;22.08;;;5.22;;
56255;SDS011;57229;51.432;-2.598;2023-03-24T08:41:12;15.57;;;4.88;;
56255;SDS011;57229;51.432;-2.598;2023-03-24T08:43:37;19.73;;;5.32;;
56255;SDS011;57229;51.432;-2.598;2023-03-24T08:46:05;18.58;;;5.18;;
56255;SDS011;57229;51.432;-2.598;2023-03-24T08:48:53;18.77;;;5.57;;
56255;SDS011;57229;51.432;-2.598;2023-03-24T08:52:13;18.35;;;5.47;;
56255;SDS011;57229;51.432;-2.598;2023-03-24T08:54:39;14.13;;;5.22;;
56255;SDS011;57229;51.432;-2.598;2023-03-24T08:57:08;15.20;;;5.30;;
56255;SDS011;57229;51.432;-2.598;2023-03-24T08:59:34;17.15;;;5.15;;
56255;SDS011;57229;51.432;-2.598;2023-03-24T09:02:00;13.20;;;4.70;;
56255;SDS011;57229;51.432;-2.598;2023-03-24T09:04:26;14.23;;;5.15;;
56255;SDS011;57229;51.432;-2.598;2023-03-24T09:06:56;17.40;;;5.47;;
56255;SDS011;57229;51.432;-2.598;2023-03-24T09:09:24;10.93;;;4.90;;
56255;SDS011;57229;51.432;-2.598;2023-03-24T09:11:53;16.95;;;5.38;;
56255;SDS011;57229;51.432;-2.598;2023-03-24T09:14:19;12.07;;;5.00;;
56255;SDS011;57229;51.432;-2.598;2023-03-24T09:16:58;15.70;;;5.28;;
56255;SDS011;57229;51.432;-2.598;2023-03-24T09:19:30;13.75;;;4.93;;
56255;SDS011;57229;51.432;-2.598;2023-03-24T09:21:58;17.77;;;5.10;;
56255;SDS011;57229;51.432;-2.598;2023-03-24T09:24:29;11.45;;;4.70;;
56255;SDS011;57229;51.432;-2.598;2023-03-24T09:26:58;14.07;;;5.00;;
56255;SDS011;57229;51.432;-2.598;2023-03-24T09:29:24;16.25;;;4.90;;
56255;SDS011;57229;51.432;-2.598;2023-03-24T09:31:50;17.90;;;5.90;;
56255;SDS011;57229;51.432;-2.598;2023-03-24T09:34:18;18.30;;;5.35;;
56255;SDS011;57229;51.432;-2.598;2023-03-24T09:36:45;14.82;;;5.43;;
56255;SDS011;57229;51.432;-2.598;2023-03-24T09:39:17;15.65;;;5.22;;
56255;SDS011;57229;51.432;-2.598;2023-03-24T09:41:43;16.40;;;5.57;;
56255;SDS011;57229;51.432;-2.598;2023-03-24T09:48:27;11.20;;;4.68;;
56255;SDS011;57229;51.432;-2.598;2023-03-24T09:50:57;13.73;;;5.03;;
56255;SDS011;57229;51.432;-2.598;2023-03-24T09:56:25;13.32;;;4.70;;
56255;SDS011;57229;51.432;-2.598;2023-03-24T09:59:15;9.60;;;4.97;;
56255;SDS011;57229;51.432;-2.598;2023-03-24T10:01:47;14.07;;;5.03;;
56255;SDS011;57229;51.432;-2.598;2023-03-24T10:04:36;13.50;;;5.10;;
56255;SDS011;57229;51.432;-2.598;2023-03-24T10:07:06;11.88;;;4.43;;
56255;SDS011;57229;51.432;-2.598;2023-03-24T10:09:55;15.48;;;4.65;;
56255;SDS011;57229;51.432;-2.598;2023-03-24T10:12:38;11.02;;;4.68;;
56255;SDS011;57229;51.432;-2.598;2023-03-24T10:25:20;7.45;;;4.88;;
56255;SDS011;57229;51.432;-2.598;2023-03-24T10:35:04;10.32;;;4.97;;
56255;SDS011;57229;51.432;-2.598;2023-03-24T10:40:19;14.23;;;5.22;;
56255;SDS011;57229;51.432;-2.598;2023-03-24T10:42:51;8.68;;;4.82;;
56255;SDS011;57229;51.432;-2.598;2023-03-24T10:45:28;9.77;;;5.10;;
56255;SDS011;57229;51.432;-2.598;2023-03-24T10:48:02;9.70;;;4.28;;
56255;SDS011;57229;51.432;-2.598;2023-03-24T10:50:30;11.63;;;4.50;;
56255;SDS011;57229;51.432;-2.598;2023-03-24T10:53:23;8.73;;;4.22;;
56255;SDS011;57229;51.432;-2.598;2023-03-24T11:08:46;7.32;;;4.10;;
56255;SDS011;57229;51.432;-2.598;2023-03-24T11:11:34;5.13;;;3.78;;
56255;SDS011;57229;51.432;-2.598;2023-03-24T11:14:09;6.10;;;3.90;;
56255;SDS011;57229;51.432;-2.598;2023-03-24T11:17:09;9.90;;;4.10;;
56255;SDS011;57229;51.432;-2.598;2023-03-24T11:19:55;6.68;;;4.13;;
56255;SDS011;57229;51.432;-2.598;2023-03-24T11:22:29;7.38;;;4.38;;
56255;SDS011;57229;51.432;-2.598;2023-03-24T11:24:55;11.25;;;4.60;;
56255;SDS011;57229;51.432;-2.598;2023-03-24T11:27:22;9.27;;;4.43;;
56255;SDS011;57229;51.432;-2.598;2023-03-24T11:29:50;6.53;;;4.50;;
56255;SDS011;57229;51.432;-2.598;2023-03-24T11:32:22;5.93;;;4.20;;
56255;SDS011;57229;51.432;-2.598;2023-03-24T11:35:02;4.95;;;4.53;;
56255;SDS011;57229;51.432;-2.598;2023-03-24T11:37:43;5.50;;;4.25;;
56255;SDS011;57229;51.432;-2.598;2023-03-24T11:40:23;6.43;;;4.40;;
56255;SDS011;57229;51.432;-2.598;2023-03-24T11:42:59;6.15;;;4.50;;
56255;SDS011;57229;51.432;-2.598;2023-03-24T11:45:38;7.32;;;4.60;;
56255;SDS011;57229;51.432;-2.598;2023-03-24T11:50:54;6.13;;;4.45;;
56255;SDS011;57229;51.432;-2.598;2023-03-24T11:53:40;7.63;;;4.38;;
56255;SDS011;57229;51.432;-2.598;2023-03-24T12:04:45;9.60;;;5.15;;
56255;SDS011;57229;51.432;-2.598;2023-03-24T12:13:19;12.43;;;5.93;;
56255;SDS011;57229;51.432;-2.598;2023-03-24T12:26:54;9.02;;;5.28;;
56255;SDS011;57229;51.432;-2.598;2023-03-24T12:32:13;11.48;;;4.80;;
56255;SDS011;57229;51.432;-2.598;2023-03-24T12:34:54;8.55;;;5.00;;
56255;SDS011;57229;51.432;-2.598;2023-03-24T12:41:02;9.80;;;5.40;;
56255;SDS011;57229;51.432;-2.598;2023-03-24T12:55:16;18.05;;;5.95;;
56255;SDS011;57229;51.432;-2.598;2023-03-24T12:57:59;13.05;;;5.40;;
56255;SDS011;57229;51.432;-2.598;2023-03-24T13:00:38;18.17;;;5.88;;
56255;SDS011;57229;51.432;-2.598;2023-03-24T13:03:21;18.73;;;6.00;;
56255;SDS011;57229;51.432;-2.598;2023-03-24T13:05:55;13.38;;;5.60;;
56255;SDS011;57229;51.432;-2.598;2023-03-24T13:08:28;18.38;;;5.90;;
56255;SDS011;57229;51.432;-2.598;2023-03-24T13:11:13;17.52;;;6.00;;
56255;SDS011;57229;51.432;-2.598;2023-03-24T13:13:43;14.88;;;5.53;;
56255;SDS011;57229;51.432;-2.598;2023-03-24T13:16:12;19.55;;;5.88;;
56255;SDS011;57229;51.432;-2.598;2023-03-24T13:18:52;10.10;;;4.63;;
56255;SDS011;57229;51.432;-2.598;2023-03-24T13:21:21;6.70;;;4.60;;
56255;SDS011;57229;51.432;-2.598;2023-03-24T13:24:11;8.57;;;4.80;;
56255;SDS011;57229;51.432;-2.598;2023-03-24T13:27:05;11.13;;;5.03;;
56255;SDS011;57229;51.432;-2.598;2023-03-24T13:32:35;17.42;;;6.95;;
56255;SDS011;57229;51.432;-2.598;2023-03-24T13:35:14;13.70;;;5.53;;
56255;SDS011;57229;51.432;-2.598;2023-03-24T13:38:04;13.60;;;5.53;;
56255;SDS011;57229;51.432;-2.598;2023-03-24T13:40:48;14.05;;;5.50;;
56255;SDS011;57229;51.432;-2.598;2023-03-24T13:43:24;13.32;;;6.10;;
56255;SDS011;57229;51.432;-2.598;2023-03-24T13:45:58;12.60;;;5.60;;
56255;SDS011;57229;51.432;-2.598;2023-03-24T13:48:28;20.88;;;6.90;;
56255;SDS011;57229;51.432;-2.598;2023-03-24T13:51:17;19.95;;;6.40;;
56255;SDS011;57229;51.432;-2.598;2023-03-24T13:53:58;14.60;;;6.15;;
56255;SDS011;57229;51.432;-2.598;2023-03-24T13:59:21;17.63;;;6.55;;
56255;SDS011;57229;51.432;-2.598;2023-03-24T14:14:06;17.25;;;6.15;;
56255;SDS011;57229;51.432;-2.598;2023-03-24T14:21:41;14.60;;;5.53;;
56255;SDS011;57229;51.432;-2.598;2023-03-24T14:24:27;13.27;;;5.82;;
56255;SDS011;57229;51.432;-2.598;2023-03-24T14:26:57;17.45;;;5.75;;
56255;SDS011;57229;51.432;-2.598;2023-03-24T14:29:39;17.58;;;5.97;;
56255;SDS011;57229;51.432;-2.598;2023-03-24T14:32:17;19.13;;;5.30;;
56255;SDS011;57229;51.432;-2.598;2023-03-24T14:34:57;15.82;;;5.45;;
56255;SDS011;57229;51.432;-2.598;2023-03-24T14:37:25;12.00;;;5.40;;
56255;SDS011;57229;51.432;-2.598;2023-03-24T14:53:49;21.35;;;6.28;;
56255;SDS011;57229;51.432;-2.598;2023-03-24T14:56:31;15.18;;;5.70;;
56255;SDS011;57229;51.432;-2.598;2023-03-24T15:01:44;10.40;;;5.18;;
56255;SDS011;57229;51.432;-2.598;2023-03-24T15:04:37;18.90;;;5.40;;
56255;SDS011;57229;51.432;-2.598;2023-03-24T15:07:09;12.55;;;5.35;;
56255;SDS011;57229;51.432;-2.598;2023-03-24T15:09:39;19.02;;;5.53;;
56255;SDS011;57229;51.432;-2.598;2023-03-24T15:12:18;14.32;;;5.25;;
56255;SDS011;57229;51.432;-2.598;2023-03-24T15:14:48;14.23;;;5.72;;
56255;SDS011;57229;51.432;-2.598;2023-03-24T15:17:20;15.63;;;5.55;;
56255;SDS011;57229;51.432;-2.598;2023-03-24T15:19:50;11.65;;;5.35;;
56255;SDS011;57229;51.432;-2.598;2023-03-24T15:22:24;20.35;;;5.65;;
56255;SDS011;57229;51.432;-2.598;2023-03-24T15:25:07;15.57;;;5.03;;
56255;SDS011;57229;51.432;-2.598;2023-03-24T15:27:36;17.33;;;5.47;;
56255;SDS011;57229;51.432;-2.598;2023-03-24T15:30:04;17.50;;;5.53;;
56255;SDS011;57229;51.432;-2.598;2023-03-24T15:32:38;17.30;;;7.00;;
56255;SDS011;57229;51.432;-2.598;2023-03-24T15:35:14;13.23;;;5.60;;
56255;SDS011;57229;51.432;-2.598;2023-03-24T15:38:02;19.45;;;6.05;;
56255;SDS011;57229;51.432;-2.598;2023-03-24T15:40:32;15.73;;;5.53;;
56255;SDS011;57229;51.432;-2.598;2023-03-24T15:43:02;12.10;;;4.85;;
56255;SDS011;57229;51.432;-2.598;2023-03-24T15:45:43;11.30;;;4.78;;
56255;SDS011;57229;51.432;-2.598;2023-03-24T15:48:14;18.98;;;6.10;;
56255;SDS011;57229;51.432;-2.598;2023-03-24T15:51:02;17.00;;;5.78;;
56255;SDS011;57229;51.432;-2.598;2023-03-24T16:00:55;14.68;;;5.72;;
56255;SDS011;57229;51.432;-2.598;2023-03-24T16:04:00;23.85;;;7.47;;
56255;SDS011;57229;51.432;-2.598;2023-03-24T16:06:32;19.17;;;6.25;;
56255;SDS011;57229;51.432;-2.598;2023-03-24T16:09:01;12.50;;;5.40;;
56255;SDS011;57229;51.432;-2.598;2023-03-24T16:11:32;15.85;;;5.50;;
56255;SDS011;57229;51.432;-2.598;2023-03-24T16:13:58;20.20;;;5.70;;
56255;SDS011;57229;51.432;-2.598;2023-03-24T16:16:26;16.58;;;5.63;;
56255;SDS011;57229;51.432;-2.598;2023-03-24T16:18:53;15.43;;;5.07;;
56255;SDS011;57229;51.432;-2.598;2023-03-24T16:31:00;20.50;;;6.03;;
56255;SDS011;57229;51.432;-2.598;2023-03-24T16:33:28;15.48;;;5.97;;
56255;SDS011;57229;51.432;-2.598;2023-03-24T16:35:55;14.02;;;5.43;;
56255;SDS011;57229;51.432;-2.598;2023-03-24T16:38:21;11.40;;;5.22;;
56255;SDS011;57229;51.432;-2.598;2023-03-24T16:40:48;12.70;;;5.38;;
56255;SDS011;57229;51.432;-2.598;2023-03-24T16:43:16;17.17;;;5.50;;
56255;SDS011;57229;51.432;-2.598;2023-03-24T16:45:44;13.50;;;4.88;;
56255;SDS011;57229;51.432;-2.598;2023-03-24T16:48:12;12.27;;;5.07;;
56255;SDS011;57229;51.432;-2.598;2023-03-24T16:50:43;17.50;;;6.05;;
56255;SDS011;57229;51.432;-2.598;2023-03-24T16:53:10;10.93;;;5.32;;
56255;SDS011;57229;51.432;-2.598;2023-03-24T16:55:37;18.58;;;5.07;;
56255;SDS011;57229;51.432;-2.598;2023-03-24T16:58:14;15.02;;;5.18;;
56255;SDS011;57229;51.432;-2.598;2023-03-24T17:00:41;12.85;;;5.00;;
56255;SDS011;57229;51.432;-2.598;2023-03-24T17:03:13;9.52;;;5.20;;
56255;SDS011;57229;51.432;-2.598;2023-03-24T17:05:46;10.60;;;5.63;;
56255;SDS011;57229;51.432;-2.598;2023-03-24T17:08:34;16.50;;;5.35;;
56255;SDS011;57229;51.432;-2.598;2023-03-24T17:11:01;12.63;;;5.15;;
56255;SDS011;57229;51.432;-2.598;2023-03-24T17:14:04;14.80;;;5.63;;
56255;SDS011;57229;51.432;-2.598;2023-03-24T17:16:33;12.38;;;5.20;;
56255;SDS011;57229;51.432;-2.598;2023-03-24T17:19:22;17.30;;;4.88;;
56255;SDS011;57229;51.432;-2.598;2023-03-24T17:24:46;17.52;;;5.30;;
56255;SDS011;57229;51.432;-2.598;2023-03-24T17:27:16;16.50;;;5.28;;
56255;SDS011;57229;51.432;-2.598;2023-03-24T17:29:51;9.68;;;5.03;;
56255;SDS011;57229;51.432;-2.598;2023-03-24T17:38:48;17.50;;;6.07;;
56255;SDS011;57229;51.432;-2.598;2023-03-24T17:41:44;10.80;;;4.97;;
56255;SDS011;57229;51.432;-2.598;2023-03-24T17:44:24;15.30;;;5.07;;
56255;SDS011;57229;51.432;-2.598;2023-03-24T17:46:53;9.80;;;5.07;;
56255;SDS011;57229;51.432;-2.598;2023-03-24T17:49:35;10.48;;;4.80;;
56255;SDS011;57229;51.432;-2.598;2023-03-24T17:52:04;14.57;;;5.43;;
56255;SDS011;57229;51.432;-2.598;2023-03-24T17:54:33;15.98;;;5.90;;
56255;SDS011;57229;51.432;-2.598;2023-03-24T17:56:59;11.63;;;4.57;;
56255;SDS011;57229;51.432;-2.598;2023-03-24T17:59:28;8.82;;;4.57;;
56255;SDS011;57229;51.432;-2.598;2023-03-24T18:02:00;14.63;;;4.97;;
56255;SDS011;57229;51.432;-2.598;2023-03-24T18:04:26;11.93;;;4.68;;
56255;SDS011;57229;51.432;-2.598;2023-03-24T18:06:52;8.50;;;4.40;;
56255;SDS011;57229;51.432;-2.598;2023-03-24T18:09:21;13.63;;;4.90;;
56255;SDS011;57229;51.432;-2.598;2023-03-24T18:11:47;12.20;;;5.45;;
56255;SDS011;57229;51.432;-2.598;2023-03-24T18:14:14;8.88;;;4.80;;